createdAt,value
2018-09-25T00:00:47.673Z,2.10
2018-09-25T00:03:21.233Z,2.13
2018-09-25T00:05:54.800Z,2.00
2018-09-25T00:08:29.009Z,1.93
2018-09-25T00:11:02.661Z,1.90
2018-09-25T00:13:36.272Z,2.40
2018-09-25T00:16:09.718Z,2.60
2018-09-25T00:18:43.312Z,4.60
2018-09-25T00:21:17.241Z,2.00
2018-09-25T00:23:50.617Z,2.40
2018-09-25T00:26:24.290Z,2.27
2018-09-25T00:28:57.701Z,2.50
2018-09-25T00:31:31.269Z,2.60
2018-09-25T00:34:04.878Z,2.37
2018-09-25T00:36:38.480Z,2.13
2018-09-25T00:39:13.218Z,2.20
2018-09-25T00:41:46.670Z,2.60
2018-09-25T00:44:20.529Z,1.80
2018-09-25T00:46:53.924Z,2.43
2018-09-25T00:49:27.860Z,2.00
2018-09-25T00:52:01.597Z,2.47
2018-09-25T00:54:35.349Z,2.40
2018-09-25T00:57:08.809Z,2.43
2018-09-25T00:59:42.295Z,2.07
2018-09-25T01:02:15.913Z,2.20
2018-09-25T01:04:49.475Z,2.50
2018-09-25T01:07:22.871Z,1.90
2018-09-25T01:09:56.551Z,2.60
2018-09-25T01:12:30.137Z,2.90
2018-09-25T01:15:03.608Z,2.60
2018-09-25T01:17:37.244Z,2.87
2018-09-25T01:20:10.841Z,2.53
2018-09-25T01:22:44.425Z,2.90
2018-09-25T01:25:18.121Z,2.90
2018-09-25T01:27:51.849Z,4.60
2018-09-25T01:30:25.236Z,2.70
2018-09-25T01:32:58.988Z,2.40
2018-09-25T01:35:32.433Z,2.77
2018-09-25T01:38:06.174Z,2.77
2018-09-25T01:40:39.504Z,2.23
2018-09-25T01:43:12.935Z,2.37
2018-09-25T01:45:46.566Z,2.40
2018-09-25T01:48:20.170Z,2.60
2018-09-25T01:50:53.577Z,2.10
2018-09-25T01:53:27.349Z,2.43
2018-09-25T01:56:01.083Z,3.03
2018-09-25T01:58:34.734Z,2.07
2018-09-25T02:01:08.264Z,2.13
2018-09-25T02:03:41.741Z,2.73
2018-09-25T02:06:15.268Z,2.40
2018-09-25T02:08:48.747Z,3.07
2018-09-25T02:11:22.520Z,3.27
2018-09-25T02:13:55.929Z,2.40
2018-09-25T02:16:29.662Z,2.73
2018-09-25T02:19:03.192Z,2.43
2018-09-25T02:21:36.612Z,2.77
2018-09-25T02:24:10.102Z,3.03
2018-09-25T02:26:43.848Z,2.47
2018-09-25T02:29:17.246Z,3.13
2018-09-25T02:31:50.777Z,2.40
2018-09-25T02:34:24.134Z,2.93
2018-09-25T02:36:57.696Z,2.53
2018-09-25T02:39:31.319Z,2.80
2018-09-25T02:42:04.744Z,2.53
2018-09-25T02:44:38.576Z,3.13
2018-09-25T02:47:11.947Z,2.50
2018-09-25T02:49:46.125Z,2.57
2018-09-25T02:52:19.502Z,2.67
2018-09-25T02:54:53.021Z,2.97
2018-09-25T02:57:26.396Z,2.90
2018-09-25T02:59:59.816Z,3.40
2018-09-25T03:02:33.274Z,2.87
2018-09-25T03:05:06.996Z,2.70
2018-09-25T03:07:40.620Z,2.50
2018-09-25T03:10:14.649Z,3.43
2018-09-25T03:12:48.230Z,3.70
2018-09-25T03:15:21.725Z,2.97
2018-09-25T03:17:55.289Z,3.13
2018-09-25T03:20:28.699Z,2.80
2018-09-25T03:23:02.368Z,3.47
2018-09-25T03:25:35.793Z,3.20
2018-09-25T03:28:09.205Z,2.90
2018-09-25T03:30:42.785Z,3.20
2018-09-25T03:33:16.693Z,2.87
2018-09-25T03:35:50.834Z,3.47
2018-09-25T03:38:24.202Z,3.67
2018-09-25T03:40:57.921Z,3.10
2018-09-25T03:43:31.509Z,3.30
2018-09-25T03:46:05.104Z,3.23
2018-09-25T03:48:38.677Z,3.10
2018-09-25T03:51:12.422Z,3.13
2018-09-25T03:53:45.845Z,2.43
2018-09-25T03:56:19.251Z,2.57
2018-09-25T03:58:52.878Z,3.30
2018-09-25T04:01:26.324Z,3.20
2018-09-25T04:03:59.880Z,3.20
2018-09-25T04:06:33.524Z,2.90
2018-09-25T04:09:07.159Z,2.80
2018-09-25T04:11:40.650Z,3.67
2018-09-25T04:14:14.040Z,3.30
2018-09-25T04:16:47.677Z,3.03
2018-09-25T04:19:21.284Z,3.90
2018-09-25T04:21:54.953Z,3.70
2018-09-25T04:24:29.079Z,3.50
2018-09-25T04:27:02.729Z,2.80
2018-09-25T04:29:36.123Z,3.50
2018-09-25T04:32:09.549Z,3.60
2018-09-25T04:34:43.129Z,3.83
2018-09-25T04:37:16.713Z,3.70
2018-09-25T04:39:50.654Z,5.23
2018-09-25T04:42:24.184Z,3.13
2018-09-25T04:44:57.865Z,3.37
2018-09-25T04:47:31.288Z,3.67
2018-09-25T04:50:05.040Z,3.77
2018-09-25T04:52:38.645Z,4.20
2018-09-25T04:55:12.514Z,4.20
2018-09-25T04:57:46.896Z,3.93
2018-09-25T05:00:20.707Z,3.50
2018-09-25T05:02:54.960Z,3.80
2018-09-25T05:05:28.718Z,3.60
2018-09-25T05:08:02.504Z,3.53
2018-09-25T05:10:44.089Z,3.83
2018-09-25T05:13:17.540Z,3.30
2018-09-25T05:15:50.935Z,3.90
2018-09-25T05:18:24.473Z,3.47
2018-09-25T05:20:58.079Z,3.90
2018-09-25T05:23:31.485Z,4.33
2018-09-25T05:26:05.280Z,3.80
2018-09-25T05:28:38.662Z,3.37
2018-09-25T05:31:12.339Z,4.03
2018-09-25T05:33:45.761Z,3.70
2018-09-25T05:36:19.159Z,3.53
2018-09-25T05:38:52.572Z,4.20
2018-09-25T05:41:26.009Z,4.00
2018-09-25T05:43:59.772Z,3.70
2018-09-25T05:46:33.271Z,4.10
2018-09-25T05:49:06.926Z,4.40
2018-09-25T05:51:40.648Z,4.90
2018-09-25T05:54:14.032Z,3.90
2018-09-25T05:56:47.469Z,3.93
2018-09-25T05:59:21.045Z,4.30
2018-09-25T06:01:54.428Z,4.13
2018-09-25T06:04:27.804Z,4.57
2018-09-25T06:07:01.240Z,4.20
2018-09-25T06:09:34.734Z,3.97
2018-09-25T06:12:08.728Z,4.67
2018-09-25T06:14:42.439Z,4.30
2018-09-25T06:17:16.108Z,4.20
2018-09-25T06:19:49.525Z,5.10
2018-09-25T06:22:23.150Z,5.27
2018-09-25T06:24:56.731Z,6.30
2018-09-25T06:27:30.320Z,5.30
2018-09-25T06:30:03.952Z,5.23
2018-09-25T06:32:37.452Z,5.93
2018-09-25T06:35:11.069Z,6.17
2018-09-25T06:37:44.525Z,9.20
2018-09-25T06:40:17.990Z,9.83
2018-09-25T06:42:51.569Z,9.83
2018-09-25T06:45:25.010Z,9.10
2018-09-25T06:47:58.541Z,8.40
2018-09-25T06:50:32.151Z,8.93
2018-09-25T06:53:05.745Z,10.57
2018-09-25T06:55:39.344Z,7.43
2018-09-25T06:58:12.658Z,6.50
2018-09-25T07:00:45.985Z,6.50
2018-09-25T07:03:19.498Z,6.77
2018-09-25T07:05:52.893Z,5.47
2018-09-25T07:08:26.351Z,5.37
2018-09-25T07:11:00.246Z,5.70
2018-09-25T07:13:33.576Z,5.77
2018-09-25T07:16:07.019Z,4.57
2018-09-25T07:18:40.347Z,4.43
2018-09-25T07:21:13.706Z,4.30
2018-09-25T07:23:47.008Z,5.33
2018-09-25T07:26:20.344Z,4.77
2018-09-25T07:28:53.800Z,5.90
2018-09-25T07:31:27.273Z,5.73
2018-09-25T07:34:00.613Z,6.97
2018-09-25T07:36:34.255Z,6.73
2018-09-25T07:39:07.773Z,5.87
2018-09-25T07:41:41.161Z,5.27
2018-09-25T07:44:14.671Z,6.10
2018-09-25T07:46:48.183Z,6.47
2018-09-25T07:49:21.703Z,4.30
2018-09-25T07:51:55.032Z,5.63
2018-09-25T07:54:28.360Z,5.70
2018-09-25T07:57:02.145Z,5.80
2018-09-25T07:59:35.641Z,5.30
2018-09-25T08:02:09.149Z,5.83
2018-09-25T08:04:42.474Z,5.93
2018-09-25T08:07:15.910Z,5.27
2018-09-25T08:09:49.758Z,4.47
2018-09-25T08:12:24.252Z,5.00
2018-09-25T08:14:58.242Z,5.70
2018-09-25T08:17:32.150Z,4.90
2018-09-25T08:20:05.804Z,4.73
2018-09-25T08:22:39.379Z,4.80
2018-09-25T08:25:12.846Z,4.80
2018-09-25T08:27:46.385Z,4.40
2018-09-25T08:30:20.109Z,3.60
2018-09-25T08:32:53.932Z,2.57
2018-09-25T08:35:28.396Z,2.40
2018-09-25T08:38:02.152Z,3.00
2018-09-25T08:40:35.656Z,2.70
2018-09-25T08:43:09.255Z,2.90
2018-09-25T08:45:43.288Z,2.70
2018-09-25T08:48:17.056Z,4.23
2018-09-25T08:50:50.548Z,2.53
2018-09-25T08:53:24.373Z,2.10
2018-09-25T08:55:58.261Z,2.10
2018-09-25T08:58:31.838Z,2.07
2018-09-25T09:01:05.456Z,1.63
2018-09-25T09:03:39.013Z,1.87
2018-09-25T09:06:12.482Z,2.70
2018-09-25T09:08:46.204Z,2.20
2018-09-25T09:11:19.592Z,1.90
2018-09-25T09:13:53.951Z,2.17
2018-09-25T09:16:27.537Z,2.30
2018-09-25T09:19:01.085Z,1.50
2018-09-25T09:21:34.559Z,1.40
2018-09-25T09:24:07.973Z,1.77
2018-09-25T09:26:41.715Z,1.70
2018-09-25T09:29:15.169Z,2.13
2018-09-25T09:31:48.680Z,1.70
2018-09-25T09:34:22.044Z,1.80
2018-09-25T09:36:55.461Z,1.87
2018-09-25T09:39:28.992Z,2.07
2018-09-25T09:42:02.609Z,1.90
2018-09-25T09:44:36.313Z,1.60
2018-09-25T09:47:10.834Z,1.43
2018-09-25T09:49:44.293Z,1.80
2018-09-25T09:52:17.792Z,1.47
2018-09-25T09:54:51.507Z,1.50
2018-09-25T09:57:25.010Z,1.90
2018-09-25T09:59:58.428Z,1.70
2018-09-25T10:02:31.796Z,1.43
2018-09-25T10:05:05.401Z,2.10
2018-09-25T10:07:38.969Z,1.40
2018-09-25T10:10:12.598Z,1.57
2018-09-25T10:12:46.478Z,1.60
2018-09-25T10:15:19.854Z,1.40
2018-09-25T10:17:53.468Z,1.50
2018-09-25T10:20:26.922Z,1.40
2018-09-25T10:23:00.288Z,1.43
2018-09-25T10:25:33.711Z,1.60
2018-09-25T10:28:07.456Z,1.40
2018-09-25T10:30:41.057Z,1.20
2018-09-25T10:33:15.265Z,1.83
2018-09-25T10:35:48.968Z,1.27
2018-09-25T10:38:22.382Z,1.83
2018-09-25T10:40:56.047Z,1.20
2018-09-25T10:43:29.634Z,1.03
2018-09-25T10:46:03.225Z,1.47
2018-09-25T10:48:36.586Z,1.40
2018-09-25T10:51:09.969Z,1.20
2018-09-25T10:53:43.588Z,1.97
2018-09-25T10:56:17.448Z,1.40
2018-09-25T10:58:51.073Z,1.03
2018-09-25T11:01:24.605Z,1.50
2018-09-25T11:03:58.517Z,1.37
2018-09-25T11:06:31.976Z,1.97
2018-09-25T11:09:05.597Z,1.57
2018-09-25T11:11:39.225Z,1.43
2018-09-25T11:14:12.874Z,1.20
2018-09-25T11:16:46.404Z,1.73
2018-09-25T11:19:20.150Z,1.30
2018-09-25T11:21:53.846Z,1.23
2018-09-25T11:24:27.419Z,1.40
2018-09-25T11:27:01.120Z,1.40
2018-09-25T11:29:34.798Z,1.40
2018-09-25T11:32:08.639Z,1.40
2018-09-25T11:34:42.258Z,1.37
2018-09-25T11:37:15.681Z,1.20
2018-09-25T11:39:49.365Z,1.10
2018-09-25T11:42:23.288Z,1.00
2018-09-25T11:44:57.073Z,1.40
2018-09-25T11:47:30.761Z,1.40
2018-09-25T11:50:04.497Z,1.67
2018-09-25T11:52:37.929Z,1.10
2018-09-25T11:55:11.628Z,1.50
2018-09-25T11:57:45.265Z,1.20
2018-09-25T12:00:19.084Z,1.30
2018-09-25T12:02:52.613Z,0.93
2018-09-25T12:05:26.258Z,1.17
2018-09-25T12:07:59.914Z,0.93
2018-09-25T12:10:33.493Z,1.13
2018-09-25T12:13:07.288Z,1.13
2018-09-25T12:15:41.101Z,1.10
2018-09-25T12:18:14.596Z,1.27
2018-09-25T12:20:48.221Z,1.10
2018-09-25T12:23:21.954Z,1.10
2018-09-25T12:25:55.704Z,1.13
2018-09-25T12:28:29.352Z,0.87
2018-09-25T12:31:02.756Z,0.87
2018-09-25T12:33:36.345Z,1.17
2018-09-25T12:36:10.645Z,1.00
2018-09-25T12:38:44.047Z,1.27
2018-09-25T12:41:17.612Z,0.80
2018-09-25T12:43:51.168Z,2.90
2018-09-25T12:46:24.932Z,0.83
2018-09-25T12:48:58.298Z,1.20
2018-09-25T12:51:31.835Z,0.80
2018-09-25T12:54:05.308Z,0.90
2018-09-25T12:56:38.955Z,0.70
2018-09-25T12:59:12.564Z,0.83
2018-09-25T13:01:46.021Z,0.70
2018-09-25T13:04:19.564Z,0.93
2018-09-25T13:06:53.196Z,1.10
2018-09-25T13:09:26.866Z,2.03
2018-09-25T13:12:00.395Z,0.90
2018-09-25T13:14:34.088Z,0.60
2018-09-25T13:17:07.626Z,0.90
2018-09-25T13:19:41.076Z,1.17
2018-09-25T13:22:14.553Z,1.30
2018-09-25T13:24:48.155Z,0.93
2018-09-25T13:27:21.517Z,0.90
2018-09-25T13:29:55.297Z,1.80
2018-09-25T13:32:28.681Z,1.20
2018-09-25T13:35:02.068Z,0.70
2018-09-25T13:37:35.627Z,0.80
2018-09-25T13:40:09.149Z,1.00
2018-09-25T13:42:42.962Z,1.23
2018-09-25T13:45:17.498Z,0.90
2018-09-25T13:47:51.145Z,0.93
2018-09-25T13:50:24.664Z,0.77
2018-09-25T13:52:58.098Z,0.70
2018-09-25T13:55:31.574Z,0.77
2018-09-25T13:58:05.463Z,0.77
2018-09-25T14:00:39.501Z,0.70
2018-09-25T14:03:13.148Z,1.07
2018-09-25T14:05:46.745Z,1.00
2018-09-25T14:08:20.582Z,1.63
2018-09-25T14:10:54.243Z,1.00
2018-09-25T14:13:27.865Z,1.00
2018-09-25T14:16:01.559Z,1.00
2018-09-25T14:18:35.192Z,0.97
2018-09-25T14:21:08.854Z,1.17
2018-09-25T14:23:42.451Z,1.10
2018-09-25T14:26:16.084Z,1.17
2018-09-25T14:28:49.730Z,1.00
2018-09-25T14:31:23.358Z,1.60
2018-09-25T14:33:56.950Z,1.10
2018-09-25T14:36:30.414Z,0.77
2018-09-25T14:39:03.947Z,0.90
2018-09-25T14:41:37.400Z,1.00
2018-09-25T14:44:10.860Z,1.10
2018-09-25T14:46:44.352Z,1.10
2018-09-25T14:49:17.927Z,0.90
2018-09-25T14:51:51.300Z,1.23
2018-09-25T14:54:24.953Z,1.00
2018-09-25T14:56:58.428Z,1.10
2018-09-25T14:59:31.853Z,0.93
2018-09-25T15:02:05.413Z,1.30
2018-09-25T15:04:38.736Z,1.20
2018-09-25T15:07:12.256Z,1.23
2018-09-25T15:09:46.071Z,0.77
2018-09-25T15:12:19.550Z,0.90
2018-09-25T15:14:52.968Z,1.50
2018-09-25T15:17:26.440Z,1.77
2018-09-25T15:19:59.889Z,1.10
2018-09-25T15:22:33.461Z,0.80
2018-09-25T15:25:06.984Z,0.83
2018-09-25T15:27:40.602Z,1.07
2018-09-25T15:30:14.185Z,1.30
2018-09-25T15:32:47.705Z,1.00
2018-09-25T15:35:21.210Z,1.27
2018-09-25T15:37:54.840Z,0.80
2018-09-25T15:40:28.159Z,0.97
2018-09-25T15:43:01.933Z,1.30
2018-09-25T15:45:35.234Z,0.90
2018-09-25T15:48:08.800Z,1.10
2018-09-25T15:50:42.336Z,0.83
2018-09-25T15:53:15.678Z,1.10
2018-09-25T15:55:49.014Z,1.10
2018-09-25T15:58:22.488Z,1.30
2018-09-25T16:00:56.429Z,0.80
2018-09-25T16:03:29.992Z,0.93
2018-09-25T16:06:03.688Z,1.00
2018-09-25T16:08:37.213Z,0.90
2018-09-25T16:11:10.937Z,1.03
2018-09-25T16:13:44.527Z,1.03
2018-09-25T16:16:18.055Z,1.43
2018-09-25T16:18:51.606Z,1.07
2018-09-25T16:21:25.030Z,1.23
2018-09-25T16:23:58.633Z,1.20
2018-09-25T16:26:32.241Z,0.93
2018-09-25T16:29:05.669Z,1.30
2018-09-25T16:31:39.072Z,0.97
2018-09-25T16:34:12.737Z,1.10
2018-09-25T16:36:46.323Z,1.30
2018-09-25T16:39:20.433Z,1.37
2018-09-25T16:41:53.876Z,1.83
2018-09-25T16:44:27.257Z,1.30
2018-09-25T16:47:00.821Z,0.90
2018-09-25T16:49:34.206Z,1.23
2018-09-25T16:52:07.861Z,1.77
2018-09-25T16:54:41.672Z,1.70
2018-09-25T16:57:15.087Z,1.20
2018-09-25T16:59:48.648Z,1.23
2018-09-25T17:02:22.140Z,1.33
2018-09-25T17:04:55.809Z,1.20
2018-09-25T17:07:29.469Z,1.47
2018-09-25T17:10:03.816Z,1.37
2018-09-25T17:12:37.710Z,1.50
2018-09-25T17:15:11.916Z,2.63
2018-09-25T17:17:45.290Z,1.80
2018-09-25T17:20:18.968Z,1.67
2018-09-25T17:22:52.480Z,1.57
2018-09-25T17:25:26.292Z,1.73
2018-09-25T17:27:59.674Z,1.20
2018-09-25T17:30:33.342Z,1.73
2018-09-25T17:33:06.916Z,1.20
2018-09-25T17:35:40.433Z,1.30
2018-09-25T17:38:14.004Z,1.13
2018-09-25T17:40:47.547Z,1.10
2018-09-25T17:43:21.090Z,1.10
2018-09-25T17:45:54.462Z,2.00
2018-09-25T17:48:27.921Z,1.37
2018-09-25T17:51:01.373Z,1.30
2018-09-25T17:53:34.888Z,1.50
2018-09-25T17:56:08.310Z,1.30
2018-09-25T17:58:41.932Z,1.60
2018-09-25T18:01:15.635Z,1.20
2018-09-25T18:03:49.326Z,1.93
2018-09-25T18:06:22.823Z,2.00
2018-09-25T18:08:56.438Z,1.50
2018-09-25T18:11:29.896Z,1.57
2018-09-25T18:14:03.600Z,1.17
2018-09-25T18:16:37.322Z,1.53
2018-09-25T18:19:10.987Z,1.30
2018-09-25T18:21:44.895Z,1.20
2018-09-25T18:24:18.680Z,1.90
2018-09-25T18:26:52.150Z,1.47
2018-09-25T18:29:25.776Z,1.63
2018-09-25T18:31:59.385Z,1.20
2018-09-25T18:34:32.835Z,2.20
2018-09-25T18:37:06.346Z,1.80
2018-09-25T18:39:39.983Z,1.27
2018-09-25T18:42:13.449Z,1.10
2018-09-25T18:44:46.963Z,1.57
2018-09-25T18:47:20.446Z,1.50
2018-09-25T18:49:53.909Z,1.70
2018-09-25T18:52:27.333Z,1.60
2018-09-25T18:55:00.920Z,1.97
2018-09-25T18:57:34.697Z,2.03
2018-09-25T19:00:08.137Z,1.60
2018-09-25T19:02:41.816Z,1.17
2018-09-25T19:05:15.559Z,1.70
2018-09-25T19:07:49.516Z,1.80
2018-09-25T19:10:23.182Z,1.67
2018-09-25T19:12:56.706Z,1.50
2018-09-25T19:15:30.600Z,1.60
2018-09-25T19:18:04.347Z,1.70
2018-09-25T19:20:37.747Z,1.53
2018-09-25T19:23:11.296Z,1.40
2018-09-25T19:25:44.910Z,1.30
2018-09-25T19:28:18.439Z,1.40
2018-09-25T19:30:52.124Z,1.87
2018-09-25T19:33:25.573Z,1.93
2018-09-25T19:35:59.249Z,1.17
2018-09-25T19:38:33.021Z,1.87
2018-09-25T19:41:06.643Z,2.00
2018-09-25T19:43:40.232Z,1.47
2018-09-25T19:46:14.641Z,2.47
2018-09-25T19:48:48.154Z,1.60
2018-09-25T19:51:21.741Z,1.50
2018-09-25T19:53:55.354Z,4.47
2018-09-25T19:56:28.779Z,2.40
2018-09-25T19:59:02.473Z,1.40
2018-09-25T20:01:36.197Z,1.43
2018-09-25T20:04:09.933Z,1.80
2018-09-25T20:06:43.554Z,1.70
2018-09-25T20:09:17.059Z,1.83
2018-09-25T20:11:50.458Z,1.60
2018-09-25T20:14:24.091Z,1.67
2018-09-25T20:16:57.585Z,1.50
2018-09-25T20:19:31.118Z,1.13
2018-09-25T20:22:04.769Z,1.60
2018-09-25T20:24:38.537Z,3.27
2018-09-25T20:27:12.093Z,4.23
2018-09-25T20:29:45.941Z,1.80
2018-09-25T20:32:19.595Z,2.23
2018-09-25T20:34:53.625Z,1.40
2018-09-25T20:37:27.099Z,1.97
2018-09-25T20:40:00.937Z,1.77
2018-09-25T20:42:34.397Z,1.53
2018-09-25T20:45:07.837Z,1.40
2018-09-25T20:47:41.229Z,1.77
2018-09-25T20:50:14.844Z,1.47
2018-09-25T20:52:48.281Z,1.57
2018-09-25T20:55:21.830Z,1.80
2018-09-25T20:57:55.830Z,1.93
2018-09-25T21:00:29.336Z,1.40
2018-09-25T21:03:02.949Z,2.00
2018-09-25T21:05:36.462Z,1.30
2018-09-25T21:08:09.916Z,1.83
2018-09-25T21:10:43.685Z,1.60
2018-09-25T21:13:17.463Z,1.90
2018-09-25T21:15:50.976Z,2.33
2018-09-25T21:18:24.760Z,1.80
2018-09-25T21:20:58.333Z,2.00
2018-09-25T21:23:31.894Z,7.13
2018-09-25T21:26:05.712Z,2.97
2018-09-25T21:28:39.150Z,1.97
2018-09-25T21:31:13.005Z,2.20
2018-09-25T21:33:46.561Z,2.40
2018-09-25T21:36:19.973Z,2.00
2018-09-25T21:38:53.652Z,1.83
2018-09-25T21:41:27.521Z,1.73
2018-09-25T21:44:00.986Z,1.83
2018-09-25T21:46:34.453Z,2.17
2018-09-25T21:49:07.842Z,1.93
2018-09-25T21:51:41.494Z,2.23
2018-09-25T21:54:15.332Z,2.50
2018-09-25T21:56:48.801Z,1.77
2018-09-25T21:59:22.361Z,1.73
2018-09-25T22:01:56.018Z,1.57
2018-09-25T22:04:29.707Z,2.00
2018-09-25T22:07:03.310Z,2.13
2018-09-25T22:09:36.779Z,1.83
2018-09-25T22:12:10.337Z,1.47
2018-09-25T22:14:43.912Z,2.20
2018-09-25T22:17:17.837Z,3.37
2018-09-25T22:19:51.577Z,2.50
2018-09-25T22:22:25.080Z,1.30
2018-09-25T22:24:59.043Z,2.37
2018-09-25T22:27:32.679Z,1.73
2018-09-25T22:30:06.149Z,1.80
2018-09-25T22:32:39.907Z,2.37
2018-09-25T22:35:13.507Z,1.47
2018-09-25T22:37:46.944Z,2.20
2018-09-25T22:40:20.836Z,1.80
2018-09-25T22:42:54.269Z,2.37
2018-09-25T22:45:27.847Z,2.07
2018-09-25T22:48:01.261Z,2.20
2018-09-25T22:50:34.645Z,2.13
2018-09-25T22:53:08.378Z,2.03
2018-09-25T22:55:41.948Z,1.70
2018-09-25T22:58:15.518Z,2.37
2018-09-25T23:00:48.884Z,2.10
2018-09-25T23:03:22.340Z,2.20
2018-09-25T23:05:56.088Z,2.23
2018-09-25T23:08:31.124Z,2.33
2018-09-25T23:11:06.840Z,1.80
2018-09-25T23:13:40.473Z,2.40
2018-09-25T23:16:14.173Z,2.20
2018-09-25T23:18:47.598Z,1.97
2018-09-25T23:21:21.308Z,2.03
2018-09-25T23:23:55.023Z,2.03
2018-09-25T23:26:28.461Z,2.17
2018-09-25T23:29:01.960Z,2.50
2018-09-25T23:31:35.585Z,1.83
2018-09-25T23:34:09.136Z,2.43
2018-09-25T23:36:42.815Z,1.93
2018-09-25T23:40:16.228Z,2.20
2018-09-25T23:42:50.529Z,1.97
2018-09-25T23:45:24.032Z,2.60
2018-09-25T23:47:58.345Z,2.10
2018-09-25T23:50:44.049Z,2.67
2018-09-25T23:53:22.168Z,1.87
2018-09-25T23:55:56.514Z,2.33
2018-09-25T23:58:31.729Z,1.93
